sensor_id;sensor_type;location;lat;lon;timestamp;P1;durP1;ratioP1;P2;durP2;ratioP2
10565;SDS011;5331;48.148;16.326;2024-03-07T00:00:00;17.13;;;13.40;;
10565;SDS011;5331;48.148;16.326;2024-03-07T00:02:28;16.93;;;12.77;;
10565;SDS011;5331;48.148;16.326;2024-03-07T00:04:55;16.03;;;13.70;;
10565;SDS011;5331;48.148;16.326;2024-03-07T00:07:21;16.17;;;13.27;;
10565;SDS011;5331;48.148;16.326;2024-03-07T00:09:47;18.50;;;14.23;;
10565;SDS011;5331;48.148;16.326;2024-03-07T00:29:39;18.00;;;14.25;;
10565;SDS011;5331;48.148;16.326;2024-03-07T00:32:05;21.07;;;14.23;;
10565;SDS011;5331;48.148;16.326;2024-03-07T00:34:32;18.93;;;14.57;;
10565;SDS011;5331;48.148;16.326;2024-03-07T00:36:58;20.00;;;15.07;;
10565;SDS011;5331;48.148;16.326;2024-03-07T00:39:25;18.20;;;14.83;;
10565;SDS011;5331;48.148;16.326;2024-03-07T00:41:51;22.17;;;16.07;;
10565;SDS011;5331;48.148;16.326;2024-03-07T00:44:17;21.07;;;16.93;;
10565;SDS011;5331;48.148;16.326;2024-03-07T00:46:44;22.57;;;16.57;;
10565;SDS011;5331;48.148;16.326;2024-03-07T01:02:13;23.87;;;16.87;;
10565;SDS011;5331;48.148;16.326;2024-03-07T01:04:42;20.93;;;15.17;;
10565;SDS011;5331;48.148;16.326;2024-03-07T01:07:08;21.30;;;14.97;;
10565;SDS011;5331;48.148;16.326;2024-03-07T01:09:34;18.73;;;14.87;;
10565;SDS011;5331;48.148;16.326;2024-03-07T01:12:01;20.30;;;14.53;;
10565;SDS011;5331;48.148;16.326;2024-03-07T01:14:29;17.57;;;13.40;;
10565;SDS011;5331;48.148;16.326;2024-03-07T01:16:56;16.10;;;12.57;;
10565;SDS011;5331;48.148;16.326;2024-03-07T01:37:14;17.73;;;14.53;;
10565;SDS011;5331;48.148;16.326;2024-03-07T01:39:40;22.17;;;15.53;;
10565;SDS011;5331;48.148;16.326;2024-03-07T01:42:06;20.27;;;15.53;;
10565;SDS011;5331;48.148;16.326;2024-03-07T01:44:33;21.37;;;16.27;;
10565;SDS011;5331;48.148;16.326;2024-03-07T01:46:59;20.70;;;14.97;;
10565;SDS011;5331;48.148;16.326;2024-03-07T01:49:28;23.07;;;16.60;;
10565;SDS011;5331;48.148;16.326;2024-03-07T01:51:55;22.80;;;17.03;;
10565;SDS011;5331;48.148;16.326;2024-03-07T02:12:03;26.93;;;19.03;;
10565;SDS011;5331;48.148;16.326;2024-03-07T02:14:30;23.73;;;17.73;;
10565;SDS011;5331;48.148;16.326;2024-03-07T02:16:56;24.33;;;18.30;;
10565;SDS011;5331;48.148;16.326;2024-03-07T02:19:23;25.23;;;17.67;;
10565;SDS011;5331;48.148;16.326;2024-03-07T02:21:50;25.20;;;18.33;;
10565;SDS011;5331;48.148;16.326;2024-03-07T02:24:16;26.67;;;18.57;;
10565;SDS011;5331;48.148;16.326;2024-03-07T02:26:42;23.73;;;17.77;;
10565;SDS011;5331;48.148;16.326;2024-03-07T02:46:55;22.27;;;17.27;;
10565;SDS011;5331;48.148;16.326;2024-03-07T02:49:22;22.43;;;16.93;;
10565;SDS011;5331;48.148;16.326;2024-03-07T02:51:48;25.13;;;17.33;;
10565;SDS011;5331;48.148;16.326;2024-03-07T02:54:14;23.20;;;16.77;;
10565;SDS011;5331;48.148;16.326;2024-03-07T02:56:40;20.83;;;16.57;;
10565;SDS011;5331;48.148;16.326;2024-03-07T02:59:06;22.40;;;16.20;;
10565;SDS011;5331;48.148;16.326;2024-03-07T03:01:33;24.53;;;16.87;;
10565;SDS011;5331;48.148;16.326;2024-03-07T03:17:00;18.77;;;13.17;;
10565;SDS011;5331;48.148;16.326;2024-03-07T03:19:26;19.33;;;13.37;;
10565;SDS011;5331;48.148;16.326;2024-03-07T03:21:52;18.10;;;13.73;;
10565;SDS011;5331;48.148;16.326;2024-03-07T03:24:20;18.33;;;13.10;;
10565;SDS011;5331;48.148;16.326;2024-03-07T03:26:47;18.50;;;13.10;;
10565;SDS011;5331;48.148;16.326;2024-03-07T03:29:13;19.13;;;13.23;;
10565;SDS011;5331;48.148;16.326;2024-03-07T03:31:41;21.07;;;13.90;;
10565;SDS011;5331;48.148;16.326;2024-03-07T03:34:08;17.43;;;12.77;;
10565;SDS011;5331;48.148;16.326;2024-03-07T03:54:26;15.97;;;12.07;;
10565;SDS011;5331;48.148;16.326;2024-03-07T03:56:53;16.60;;;12.40;;
10565;SDS011;5331;48.148;16.326;2024-03-07T03:59:19;15.67;;;11.40;;
10565;SDS011;5331;48.148;16.326;2024-03-07T04:01:45;15.90;;;12.20;;
10565;SDS011;5331;48.148;16.326;2024-03-07T04:04:13;12.80;;;10.70;;
10565;SDS011;5331;48.148;16.326;2024-03-07T04:06:39;15.30;;;11.50;;
10565;SDS011;5331;48.148;16.326;2024-03-07T04:09:05;14.27;;;10.83;;
10565;SDS011;5331;48.148;16.326;2024-03-07T04:24:40;12.23;;;9.53;;
10565;SDS011;5331;48.148;16.326;2024-03-07T04:27:06;14.20;;;9.83;;
10565;SDS011;5331;48.148;16.326;2024-03-07T04:29:33;12.97;;;9.67;;
10565;SDS011;5331;48.148;16.326;2024-03-07T04:32:00;12.37;;;9.17;;
10565;SDS011;5331;48.148;16.326;2024-03-07T04:34:27;13.10;;;9.90;;
10565;SDS011;5331;48.148;16.326;2024-03-07T04:36:55;11.57;;;9.33;;
10565;SDS011;5331;48.148;16.326;2024-03-07T04:39:22;12.57;;;10.27;;
10565;SDS011;5331;48.148;16.326;2024-03-07T04:57:20;11.57;;;9.20;;
10565;SDS011;5331;48.148;16.326;2024-03-07T04:59:46;11.90;;;8.87;;
10565;SDS011;5331;48.148;16.326;2024-03-07T05:02:13;11.30;;;8.63;;
10565;SDS011;5331;48.148;16.326;2024-03-07T05:04:39;11.00;;;9.23;;
10565;SDS011;5331;48.148;16.326;2024-03-07T05:07:05;12.10;;;9.27;;
10565;SDS011;5331;48.148;16.326;2024-03-07T05:09:31;11.53;;;9.10;;
10565;SDS011;5331;48.148;16.326;2024-03-07T05:11:58;11.07;;;8.87;;
10565;SDS011;5331;48.148;16.326;2024-03-07T05:27:27;14.47;;;10.20;;
10565;SDS011;5331;48.148;16.326;2024-03-07T05:29:55;13.17;;;9.80;;
10565;SDS011;5331;48.148;16.326;2024-03-07T05:32:23;13.47;;;9.60;;
10565;SDS011;5331;48.148;16.326;2024-03-07T05:34:50;14.43;;;10.07;;
10565;SDS011;5331;48.148;16.326;2024-03-07T05:37:18;13.50;;;10.50;;
10565;SDS011;5331;48.148;16.326;2024-03-07T05:39:46;13.57;;;11.10;;
10565;SDS011;5331;48.148;16.326;2024-03-07T05:42:13;13.37;;;11.10;;
10565;SDS011;5331;48.148;16.326;2024-03-07T05:57:54;12.73;;;9.93;;
10565;SDS011;5331;48.148;16.326;2024-03-07T06:00:20;13.63;;;10.00;;
10565;SDS011;5331;48.148;16.326;2024-03-07T06:02:52;12.50;;;10.13;;
10565;SDS011;5331;48.148;16.326;2024-03-07T06:05:18;13.60;;;10.40;;
10565;SDS011;5331;48.148;16.326;2024-03-07T06:07:44;14.27;;;10.60;;
10565;SDS011;5331;48.148;16.326;2024-03-07T06:10:11;12.93;;;10.43;;
10565;SDS011;5331;48.148;16.326;2024-03-07T06:12:37;13.13;;;10.60;;
10565;SDS011;5331;48.148;16.326;2024-03-07T06:29:19;11.00;;;9.77;;
10565;SDS011;5331;48.148;16.326;2024-03-07T06:31:46;12.07;;;9.37;;
10565;SDS011;5331;48.148;16.326;2024-03-07T06:34:13;10.70;;;8.73;;
10565;SDS011;5331;48.148;16.326;2024-03-07T06:36:39;12.13;;;9.77;;
10565;SDS011;5331;48.148;16.326;2024-03-07T06:39:05;11.07;;;9.07;;
10565;SDS011;5331;48.148;16.326;2024-03-07T06:41:32;12.87;;;9.37;;
10565;SDS011;5331;48.148;16.326;2024-03-07T06:43:58;13.20;;;10.03;;
10565;SDS011;5331;48.148;16.326;2024-03-07T06:46:26;10.43;;;9.33;;
10565;SDS011;5331;48.148;16.326;2024-03-07T07:04:20;10.83;;;9.20;;
10565;SDS011;5331;48.148;16.326;2024-03-07T07:06:48;12.27;;;9.40;;
10565;SDS011;5331;48.148;16.326;2024-03-07T07:09:14;13.40;;;10.33;;
10565;SDS011;5331;48.148;16.326;2024-03-07T07:11:44;12.10;;;9.90;;
10565;SDS011;5331;48.148;16.326;2024-03-07T07:14:11;11.77;;;9.00;;
10565;SDS011;5331;48.148;16.326;2024-03-07T07:16:37;13.23;;;10.40;;
10565;SDS011;5331;48.148;16.326;2024-03-07T07:19:07;16.40;;;9.97;;
10565;SDS011;5331;48.148;16.326;2024-03-07T07:35:29;11.13;;;9.40;;
10565;SDS011;5331;48.148;16.326;2024-03-07T07:37:56;12.60;;;9.43;;
10565;SDS011;5331;48.148;16.326;2024-03-07T07:40:23;11.20;;;9.03;;
10565;SDS011;5331;48.148;16.326;2024-03-07T07:42:51;11.27;;;9.20;;
10565;SDS011;5331;48.148;16.326;2024-03-07T07:45:18;10.70;;;9.43;;
10565;SDS011;5331;48.148;16.326;2024-03-07T07:47:46;11.43;;;9.50;;
10565;SDS011;5331;48.148;16.326;2024-03-07T07:50:14;11.57;;;9.60;;
10565;SDS011;5331;48.148;16.326;2024-03-07T08:10:05;11.73;;;9.37;;
10565;SDS011;5331;48.148;16.326;2024-03-07T08:12:32;11.97;;;9.73;;
10565;SDS011;5331;48.148;16.326;2024-03-07T08:14:58;12.67;;;10.03;;
10565;SDS011;5331;48.148;16.326;2024-03-07T08:17:24;11.33;;;9.47;;
10565;SDS011;5331;48.148;16.326;2024-03-07T08:19:53;11.37;;;9.30;;
10565;SDS011;5331;48.148;16.326;2024-03-07T08:22:19;11.63;;;9.43;;
10565;SDS011;5331;48.148;16.326;2024-03-07T08:24:45;11.97;;;9.40;;
10565;SDS011;5331;48.148;16.326;2024-03-07T08:41:01;10.97;;;8.93;;
10565;SDS011;5331;48.148;16.326;2024-03-07T08:43:28;9.47;;;8.20;;
10565;SDS011;5331;48.148;16.326;2024-03-07T08:45:54;10.23;;;8.60;;
10565;SDS011;5331;48.148;16.326;2024-03-07T08:48:20;9.13;;;8.23;;
10565;SDS011;5331;48.148;16.326;2024-03-07T08:50:47;10.17;;;8.73;;
10565;SDS011;5331;48.148;16.326;2024-03-07T08:53:13;11.57;;;8.83;;
10565;SDS011;5331;48.148;16.326;2024-03-07T08:55:39;11.40;;;8.97;;
10565;SDS011;5331;48.148;16.326;2024-03-07T08:58:06;11.27;;;8.83;;
10565;SDS011;5331;48.148;16.326;2024-03-07T09:16:00;10.55;;;8.35;;
10565;SDS011;5331;48.148;16.326;2024-03-07T09:18:30;10.35;;;8.40;;
10565;SDS011;5331;48.148;16.326;2024-03-07T09:20:56;12.40;;;9.27;;
10565;SDS011;5331;48.148;16.326;2024-03-07T09:23:23;11.27;;;8.73;;
10565;SDS011;5331;48.148;16.326;2024-03-07T09:25:49;12.43;;;9.40;;
10565;SDS011;5331;48.148;16.326;2024-03-07T09:28:15;12.67;;;8.97;;
10565;SDS011;5331;48.148;16.326;2024-03-07T09:30:41;12.97;;;9.17;;
10565;SDS011;5331;48.148;16.326;2024-03-07T09:46:39;8.63;;;7.40;;
10565;SDS011;5331;48.148;16.326;2024-03-07T09:49:06;8.20;;;7.05;;
10565;SDS011;5331;48.148;16.326;2024-03-07T09:51:35;9.40;;;7.05;;
10565;SDS011;5331;48.148;16.326;2024-03-07T09:54:02;9.80;;;7.93;;
10565;SDS011;5331;48.148;16.326;2024-03-07T09:56:29;9.97;;;8.00;;
10565;SDS011;5331;48.148;16.326;2024-03-07T09:58:57;10.40;;;8.50;;
10565;SDS011;5331;48.148;16.326;2024-03-07T10:01:25;11.20;;;8.60;;
10565;SDS011;5331;48.148;16.326;2024-03-07T10:03:58;10.87;;;8.73;;
10565;SDS011;5331;48.148;16.326;2024-03-07T10:22:09;12.52;;;9.77;;
10565;SDS011;5331;48.148;16.326;2024-03-07T10:24:35;14.30;;;11.20;;
10565;SDS011;5331;48.148;16.326;2024-03-07T10:27:01;12.95;;;10.75;;
10565;SDS011;5331;48.148;16.326;2024-03-07T10:29:29;13.23;;;10.17;;
10565;SDS011;5331;48.148;16.326;2024-03-07T10:31:55;13.57;;;10.80;;
10565;SDS011;5331;48.148;16.326;2024-03-07T10:34:21;12.43;;;10.13;;
10565;SDS011;5331;48.148;16.326;2024-03-07T10:36:48;16.30;;;10.57;;
10565;SDS011;5331;48.148;16.326;2024-03-07T10:54:47;14.30;;;10.93;;
10565;SDS011;5331;48.148;16.326;2024-03-07T10:57:22;13.98;;;11.20;;
10565;SDS011;5331;48.148;16.326;2024-03-07T10:59:57;13.30;;;10.35;;
10565;SDS011;5331;48.148;16.326;2024-03-07T11:02:37;14.27;;;10.18;;
10565;SDS011;5331;48.148;16.326;2024-03-07T11:05:11;14.73;;;10.70;;
10565;SDS011;5331;48.148;16.326;2024-03-07T11:07:41;13.50;;;10.38;;
10565;SDS011;5331;48.148;16.326;2024-03-07T11:10:08;13.15;;;9.85;;
10565;SDS011;5331;48.148;16.326;2024-03-07T11:27:59;17.00;;;12.63;;
10565;SDS011;5331;48.148;16.326;2024-03-07T11:30:27;15.73;;;11.77;;
10565;SDS011;5331;48.148;16.326;2024-03-07T11:32:54;16.33;;;12.27;;
10565;SDS011;5331;48.148;16.326;2024-03-07T11:35:30;16.70;;;12.53;;
10565;SDS011;5331;48.148;16.326;2024-03-07T11:38:00;16.83;;;12.43;;
10565;SDS011;5331;48.148;16.326;2024-03-07T11:40:44;18.33;;;12.77;;
10565;SDS011;5331;48.148;16.326;2024-03-07T11:43:18;18.30;;;13.87;;
10565;SDS011;5331;48.148;16.326;2024-03-07T12:01:12;19.35;;;13.55;;
10565;SDS011;5331;48.148;16.326;2024-03-07T12:03:39;17.27;;;13.57;;
10565;SDS011;5331;48.148;16.326;2024-03-07T12:06:05;19.87;;;13.80;;
10565;SDS011;5331;48.148;16.326;2024-03-07T12:08:35;18.60;;;14.47;;
10565;SDS011;5331;48.148;16.326;2024-03-07T12:11:01;21.10;;;14.93;;
10565;SDS011;5331;48.148;16.326;2024-03-07T12:13:28;20.50;;;14.70;;
10565;SDS011;5331;48.148;16.326;2024-03-07T12:15:54;19.03;;;15.03;;
10565;SDS011;5331;48.148;16.326;2024-03-07T12:18:24;21.30;;;15.47;;
10565;SDS011;5331;48.148;16.326;2024-03-07T12:33:53;22.00;;;14.73;;
10565;SDS011;5331;48.148;16.326;2024-03-07T12:36:19;20.05;;;14.75;;
10565;SDS011;5331;48.148;16.326;2024-03-07T12:38:47;20.43;;;14.83;;
10565;SDS011;5331;48.148;16.326;2024-03-07T12:41:18;20.87;;;15.20;;
10565;SDS011;5331;48.148;16.326;2024-03-07T12:43:48;19.83;;;15.07;;
10565;SDS011;5331;48.148;16.326;2024-03-07T12:46:14;20.80;;;15.67;;
10565;SDS011;5331;48.148;16.326;2024-03-07T12:48:41;22.53;;;15.97;;
10565;SDS011;5331;48.148;16.326;2024-03-07T12:51:10;22.23;;;16.07;;
10565;SDS011;5331;48.148;16.326;2024-03-07T13:11:37;24.10;;;17.00;;
10565;SDS011;5331;48.148;16.326;2024-03-07T13:14:06;23.10;;;15.75;;
10565;SDS011;5331;48.148;16.326;2024-03-07T13:16:33;21.80;;;15.17;;
10565;SDS011;5331;48.148;16.326;2024-03-07T13:19:00;21.30;;;15.27;;
10565;SDS011;5331;48.148;16.326;2024-03-07T13:21:29;22.70;;;15.33;;
10565;SDS011;5331;48.148;16.326;2024-03-07T13:23:57;21.43;;;15.17;;
10565;SDS011;5331;48.148;16.326;2024-03-07T13:26:23;21.60;;;15.07;;
10565;SDS011;5331;48.148;16.326;2024-03-07T13:42:01;22.08;;;15.25;;
10565;SDS011;5331;48.148;16.326;2024-03-07T13:44:30;20.20;;;14.20;;
10565;SDS011;5331;48.148;16.326;2024-03-07T13:46:56;20.25;;;14.45;;
10565;SDS011;5331;48.148;16.326;2024-03-07T13:49:24;21.47;;;14.43;;
10565;SDS011;5331;48.148;16.326;2024-03-07T13:51:53;20.67;;;14.20;;
10565;SDS011;5331;48.148;16.326;2024-03-07T13:54:25;19.77;;;14.67;;
10565;SDS011;5331;48.148;16.326;2024-03-07T13:57:03;21.37;;;15.30;;
10565;SDS011;5331;48.148;16.326;2024-03-07T14:21:11;23.13;;;15.30;;
10565;SDS011;5331;48.148;16.326;2024-03-07T14:24:06;21.57;;;14.93;;
10565;SDS011;5331;48.148;16.326;2024-03-07T14:26:56;20.20;;;15.07;;
10565;SDS011;5331;48.148;16.326;2024-03-07T14:29:44;20.57;;;15.53;;
10565;SDS011;5331;48.148;16.326;2024-03-07T14:50:08;20.63;;;15.15;;
10565;SDS011;5331;48.148;16.326;2024-03-07T14:52:35;19.67;;;14.32;;
10565;SDS011;5331;48.148;16.326;2024-03-07T14:55:05;21.17;;;14.23;;
10565;SDS011;5331;48.148;16.326;2024-03-07T14:57:33;19.63;;;14.37;;
10565;SDS011;5331;48.148;16.326;2024-03-07T14:59:59;20.97;;;14.17;;
10565;SDS011;5331;48.148;16.326;2024-03-07T15:02:25;19.50;;;14.73;;
10565;SDS011;5331;48.148;16.326;2024-03-07T15:04:52;19.67;;;14.73;;
10565;SDS011;5331;48.148;16.326;2024-03-07T15:07:19;22.10;;;15.80;;
10565;SDS011;5331;48.148;16.326;2024-03-07T15:25:11;21.47;;;15.40;;
10565;SDS011;5331;48.148;16.326;2024-03-07T15:27:38;21.17;;;16.63;;
10565;SDS011;5331;48.148;16.326;2024-03-07T15:30:05;22.07;;;16.17;;
10565;SDS011;5331;48.148;16.326;2024-03-07T15:32:36;24.13;;;17.17;;
10565;SDS011;5331;48.148;16.326;2024-03-07T15:35:02;23.27;;;16.20;;
10565;SDS011;5331;48.148;16.326;2024-03-07T15:37:29;22.83;;;17.13;;
10565;SDS011;5331;48.148;16.326;2024-03-07T15:39:55;22.90;;;17.47;;
10565;SDS011;5331;48.148;16.326;2024-03-07T15:42:22;22.53;;;16.57;;
10565;SDS011;5331;48.148;16.326;2024-03-07T16:00:22;22.90;;;17.33;;
10565;SDS011;5331;48.148;16.326;2024-03-07T16:02:49;23.87;;;16.30;;
10565;SDS011;5331;48.148;16.326;2024-03-07T16:05:18;25.20;;;17.80;;
10565;SDS011;5331;48.148;16.326;2024-03-07T16:07:44;27.00;;;17.70;;
10565;SDS011;5331;48.148;16.326;2024-03-07T16:10:11;28.53;;;18.60;;
10565;SDS011;5331;48.148;16.326;2024-03-07T16:12:38;26.70;;;17.57;;
10565;SDS011;5331;48.148;16.326;2024-03-07T16:15:05;25.23;;;17.83;;
10565;SDS011;5331;48.148;16.326;2024-03-07T16:30:59;28.50;;;19.35;;
10565;SDS011;5331;48.148;16.326;2024-03-07T16:33:26;29.73;;;19.20;;
10565;SDS011;5331;48.148;16.326;2024-03-07T16:35:53;29.77;;;19.70;;
10565;SDS011;5331;48.148;16.326;2024-03-07T16:38:22;33.70;;;20.30;;
10565;SDS011;5331;48.148;16.326;2024-03-07T16:40:48;29.67;;;19.33;;
10565;SDS011;5331;48.148;16.326;2024-03-07T16:43:14;32.30;;;21.10;;
10565;SDS011;5331;48.148;16.326;2024-03-07T16:45:41;34.13;;;21.17;;
10565;SDS011;5331;48.148;16.326;2024-03-07T16:48:08;35.03;;;22.67;;
10565;SDS011;5331;48.148;16.326;2024-03-07T17:06:04;33.20;;;22.87;;
10565;SDS011;5331;48.148;16.326;2024-03-07T17:08:34;35.17;;;23.60;;
10565;SDS011;5331;48.148;16.326;2024-03-07T17:11:02;32.90;;;22.53;;
10565;SDS011;5331;48.148;16.326;2024-03-07T17:13:29;34.83;;;23.03;;
10565;SDS011;5331;48.148;16.326;2024-03-07T17:15:55;36.03;;;24.50;;
10565;SDS011;5331;48.148;16.326;2024-03-07T17:18:22;34.33;;;23.13;;
10565;SDS011;5331;48.148;16.326;2024-03-07T17:20:49;36.27;;;24.77;;
10565;SDS011;5331;48.148;16.326;2024-03-07T17:38:44;34.00;;;24.13;;
10565;SDS011;5331;48.148;16.326;2024-03-07T17:41:11;35.50;;;23.90;;
10565;SDS011;5331;48.148;16.326;2024-03-07T17:43:37;36.27;;;24.67;;
10565;SDS011;5331;48.148;16.326;2024-03-07T17:46:04;37.73;;;25.53;;
10565;SDS011;5331;48.148;16.326;2024-03-07T17:48:32;38.10;;;25.83;;
10565;SDS011;5331;48.148;16.326;2024-03-07T17:51:01;35.70;;;25.73;;
10565;SDS011;5331;48.148;16.326;2024-03-07T17:53:29;37.37;;;26.43;;
10565;SDS011;5331;48.148;16.326;2024-03-07T18:13:50;35.03;;;23.50;;
10565;SDS011;5331;48.148;16.326;2024-03-07T18:16:18;37.60;;;24.23;;
10565;SDS011;5331;48.148;16.326;2024-03-07T18:18:44;38.13;;;24.03;;
10565;SDS011;5331;48.148;16.326;2024-03-07T18:21:11;40.27;;;25.13;;
10565;SDS011;5331;48.148;16.326;2024-03-07T18:23:37;36.03;;;23.80;;
10565;SDS011;5331;48.148;16.326;2024-03-07T18:26:03;41.00;;;25.67;;
10565;SDS011;5331;48.148;16.326;2024-03-07T18:28:31;40.13;;;26.50;;
10565;SDS011;5331;48.148;16.326;2024-03-07T18:43:59;44.20;;;27.63;;
10565;SDS011;5331;48.148;16.326;2024-03-07T18:46:25;45.77;;;27.33;;
10565;SDS011;5331;48.148;16.326;2024-03-07T18:48:54;45.23;;;28.17;;
10565;SDS011;5331;48.148;16.326;2024-03-07T18:51:21;46.53;;;28.20;;
10565;SDS011;5331;48.148;16.326;2024-03-07T18:53:48;45.53;;;28.93;;
10565;SDS011;5331;48.148;16.326;2024-03-07T18:56:14;45.77;;;29.50;;
10565;SDS011;5331;48.148;16.326;2024-03-07T18:58:52;47.10;;;29.43;;
10565;SDS011;5331;48.148;16.326;2024-03-07T19:16:50;44.50;;;28.23;;
10565;SDS011;5331;48.148;16.326;2024-03-07T19:19:18;44.00;;;27.53;;
10565;SDS011;5331;48.148;16.326;2024-03-07T19:21:45;43.00;;;26.87;;
10565;SDS011;5331;48.148;16.326;2024-03-07T19:24:12;46.33;;;27.30;;
10565;SDS011;5331;48.148;16.326;2024-03-07T19:26:41;42.23;;;27.60;;
10565;SDS011;5331;48.148;16.326;2024-03-07T19:29:08;44.37;;;28.37;;
10565;SDS011;5331;48.148;16.326;2024-03-07T19:31:34;45.07;;;28.80;;
10565;SDS011;5331;48.148;16.326;2024-03-07T19:34:02;44.73;;;28.87;;
10565;SDS011;5331;48.148;16.326;2024-03-07T19:51:59;45.17;;;28.30;;
10565;SDS011;5331;48.148;16.326;2024-03-07T19:54:36;40.43;;;26.40;;
10565;SDS011;5331;48.148;16.326;2024-03-07T19:57:03;43.07;;;26.40;;
10565;SDS011;5331;48.148;16.326;2024-03-07T19:59:31;44.30;;;27.47;;
10565;SDS011;5331;48.148;16.326;2024-03-07T20:01:58;46.03;;;28.57;;
10565;SDS011;5331;48.148;16.326;2024-03-07T20:04:25;48.37;;;30.03;;
10565;SDS011;5331;48.148;16.326;2024-03-07T20:06:51;46.43;;;29.90;;
10565;SDS011;5331;48.148;16.326;2024-03-07T20:26:51;45.60;;;28.07;;
10565;SDS011;5331;48.148;16.326;2024-03-07T20:29:18;45.53;;;27.47;;
10565;SDS011;5331;48.148;16.326;2024-03-07T20:31:44;43.87;;;26.80;;
10565;SDS011;5331;48.148;16.326;2024-03-07T20:34:10;43.37;;;27.57;;
10565;SDS011;5331;48.148;16.326;2024-03-07T20:36:36;50.60;;;29.30;;
10565;SDS011;5331;48.148;16.326;2024-03-07T20:39:02;46.37;;;29.13;;
10565;SDS011;5331;48.148;16.326;2024-03-07T20:41:34;46.50;;;30.30;;
10565;SDS011;5331;48.148;16.326;2024-03-07T21:01:47;46.70;;;29.70;;
10565;SDS011;5331;48.148;16.326;2024-03-07T21:04:14;44.47;;;27.50;;
10565;SDS011;5331;48.148;16.326;2024-03-07T21:06:41;44.67;;;29.40;;
10565;SDS011;5331;48.148;16.326;2024-03-07T21:09:08;45.77;;;28.30;;
10565;SDS011;5331;48.148;16.326;2024-03-07T21:11:35;46.07;;;30.23;;
10565;SDS011;5331;48.148;16.326;2024-03-07T21:14:01;47.37;;;30.10;;
10565;SDS011;5331;48.148;16.326;2024-03-07T21:16:27;47.47;;;29.47;;
10565;SDS011;5331;48.148;16.326;2024-03-07T21:32:00;46.30;;;26.67;;
10565;SDS011;5331;48.148;16.326;2024-03-07T21:34:26;46.10;;;26.90;;
10565;SDS011;5331;48.148;16.326;2024-03-07T21:36:53;41.47;;;25.97;;
10565;SDS011;5331;48.148;16.326;2024-03-07T21:39:19;41.97;;;26.60;;
10565;SDS011;5331;48.148;16.326;2024-03-07T21:41:49;44.13;;;27.77;;
10565;SDS011;5331;48.148;16.326;2024-03-07T21:44:15;45.20;;;27.60;;
10565;SDS011;5331;48.148;16.326;2024-03-07T21:46:41;40.77;;;26.47;;
10565;SDS011;5331;48.148;16.326;2024-03-07T22:02:20;45.13;;;27.80;;
10565;SDS011;5331;48.148;16.326;2024-03-07T22:04:46;43.97;;;26.60;;
10565;SDS011;5331;48.148;16.326;2024-03-07T22:07:12;44.83;;;27.50;;
10565;SDS011;5331;48.148;16.326;2024-03-07T22:09:40;43.00;;;26.83;;
10565;SDS011;5331;48.148;16.326;2024-03-07T22:12:06;43.73;;;27.50;;
10565;SDS011;5331;48.148;16.326;2024-03-07T22:14:33;46.63;;;29.17;;
10565;SDS011;5331;48.148;16.326;2024-03-07T22:17:02;46.93;;;29.30;;
10565;SDS011;5331;48.148;16.326;2024-03-07T22:19:31;46.87;;;28.33;;
10565;SDS011;5331;48.148;16.326;2024-03-07T22:37:26;45.27;;;27.17;;
10565;SDS011;5331;48.148;16.326;2024-03-07T22:39:54;44.57;;;26.67;;
10565;SDS011;5331;48.148;16.326;2024-03-07T22:42:21;46.57;;;28.10;;
10565;SDS011;5331;48.148;16.326;2024-03-07T22:44:48;47.37;;;27.50;;
10565;SDS011;5331;48.148;16.326;2024-03-07T22:47:14;45.47;;;27.63;;
10565;SDS011;5331;48.148;16.326;2024-03-07T22:49:42;45.00;;;28.60;;
10565;SDS011;5331;48.148;16.326;2024-03-07T22:52:08;50.03;;;30.37;;
10565;SDS011;5331;48.148;16.326;2024-03-07T23:10:08;46.13;;;28.63;;
10565;SDS011;5331;48.148;16.326;2024-03-07T23:12:36;46.43;;;28.63;;
10565;SDS011;5331;48.148;16.326;2024-03-07T23:15:03;46.37;;;27.30;;
10565;SDS011;5331;48.148;16.326;2024-03-07T23:17:31;45.07;;;27.23;;
10565;SDS011;5331;48.148;16.326;2024-03-07T23:19:57;50.53;;;28.87;;
10565;SDS011;5331;48.148;16.326;2024-03-07T23:22:23;49.90;;;29.60;;
10565;SDS011;5331;48.148;16.326;2024-03-07T23:24:51;50.70;;;30.67;;
10565;SDS011;5331;48.148;16.326;2024-03-07T23:27:18;48.07;;;30.30;;
10565;SDS011;5331;48.148;16.326;2024-03-07T23:45:32;47.43;;;28.43;;
10565;SDS011;5331;48.148;16.326;2024-03-07T23:47:58;44.90;;;27.33;;
10565;SDS011;5331;48.148;16.326;2024-03-07T23:50:24;48.43;;;27.83;;
10565;SDS011;5331;48.148;16.326;2024-03-07T23:52:52;46.50;;;27.80;;
10565;SDS011;5331;48.148;16.326;2024-03-07T23:55:20;49.47;;;29.23;;
10565;SDS011;5331;48.148;16.326;2024-03-07T23:57:47;51.30;;;29.40;;
